カシュガル の空港の天気 - METARとTAF

カシュガル空港 ( ZWSH / KHG ) - 中国 新疆ウイグル自治区カシュガル市
飛行場実況気象(Metar)
観測時間11/27 17:00 CST (11/27 09:00 UTC)
風向・風速北 3m/s
視程10km以上
天気現象
なし
気温20℃
湿度7%
気圧1014hPa
METARZWSH 270900Z VRB03MPS CAVOK 20/M17 Q1014 NOSIG
過去の天気等 Google飛行場航空写真 Wunderground天気予報

過去48時間のMETAR

飛行場予報(TAF)
発表時間: 11/27 11:07 CST (11/27 03:07 UTC)
予報対象時間: 27日14時 CST ~ 28日14時 CST
風向・風速北西 5m/s
視程10km以上
少しの雲 雲底高度 1220m
27日16時 CST ~ 27日17時 CST に徐々に
風向・風速東南東 4m/s
TAF ZWSH 270307Z 2706/2806 32005MPS 9999 FEW040 TX19/2709Z TNM02/2800Z
BECMG 2708/2709 12004MPS